sensor_id;sensor_type;location;lat;lon;timestamp;P1;durP1;ratioP1;P2;durP2;ratioP2
45944;SDS011;31655;48.972;10.686;2024-02-16T00:00:36;10.10;;;6.15;;
45944;SDS011;31655;48.972;10.686;2024-02-16T00:03:01;10.13;;;6.03;;
45944;SDS011;31655;48.972;10.686;2024-02-16T00:05:27;14.00;;;6.88;;
45944;SDS011;31655;48.972;10.686;2024-02-16T00:07:53;9.43;;;5.88;;
45944;SDS011;31655;48.972;10.686;2024-02-16T00:10:20;7.43;;;5.85;;
45944;SDS011;31655;48.972;10.686;2024-02-16T00:12:46;9.60;;;6.07;;
45944;SDS011;31655;48.972;10.686;2024-02-16T00:15:12;9.57;;;5.85;;
45944;SDS011;31655;48.972;10.686;2024-02-16T00:17:38;11.13;;;6.47;;
45944;SDS011;31655;48.972;10.686;2024-02-16T00:20:04;10.23;;;6.07;;
45944;SDS011;31655;48.972;10.686;2024-02-16T00:22:32;8.20;;;6.05;;
45944;SDS011;31655;48.972;10.686;2024-02-16T00:24:58;11.13;;;6.07;;
45944;SDS011;31655;48.972;10.686;2024-02-16T00:27:23;11.27;;;6.05;;
45944;SDS011;31655;48.972;10.686;2024-02-16T00:29:49;8.68;;;6.05;;
45944;SDS011;31655;48.972;10.686;2024-02-16T00:32:15;10.90;;;6.28;;
45944;SDS011;31655;48.972;10.686;2024-02-16T00:34:40;13.63;;;6.50;;
45944;SDS011;31655;48.972;10.686;2024-02-16T00:37:06;12.27;;;6.47;;
45944;SDS011;31655;48.972;10.686;2024-02-16T00:39:35;9.95;;;7.00;;
45944;SDS011;31655;48.972;10.686;2024-02-16T00:42:01;10.13;;;6.40;;
45944;SDS011;31655;48.972;10.686;2024-02-16T00:44:27;10.75;;;7.25;;
45944;SDS011;31655;48.972;10.686;2024-02-16T00:46:53;9.88;;;6.07;;
45944;SDS011;31655;48.972;10.686;2024-02-16T00:49:19;11.27;;;6.75;;
45944;SDS011;31655;48.972;10.686;2024-02-16T00:51:44;10.65;;;7.50;;
45944;SDS011;31655;48.972;10.686;2024-02-16T00:54:10;10.63;;;6.47;;
45944;SDS011;31655;48.972;10.686;2024-02-16T00:56:35;15.75;;;7.65;;
45944;SDS011;31655;48.972;10.686;2024-02-16T00:59:01;11.43;;;6.60;;
45944;SDS011;31655;48.972;10.686;2024-02-16T01:01:27;12.02;;;7.13;;
45944;SDS011;31655;48.972;10.686;2024-02-16T01:03:53;9.40;;;7.45;;
45944;SDS011;31655;48.972;10.686;2024-02-16T01:06:18;10.43;;;7.45;;
45944;SDS011;31655;48.972;10.686;2024-02-16T01:08:44;9.15;;;6.85;;
45944;SDS011;31655;48.972;10.686;2024-02-16T01:11:11;12.60;;;7.28;;
45944;SDS011;31655;48.972;10.686;2024-02-16T01:13:37;13.00;;;7.90;;
45944;SDS011;31655;48.972;10.686;2024-02-16T01:16:07;11.15;;;7.28;;
45944;SDS011;31655;48.972;10.686;2024-02-16T01:18:33;15.90;;;7.68;;
45944;SDS011;31655;48.972;10.686;2024-02-16T01:21:01;11.88;;;7.78;;
45944;SDS011;31655;48.972;10.686;2024-02-16T01:23:28;13.35;;;8.02;;
45944;SDS011;31655;48.972;10.686;2024-02-16T01:25:53;13.48;;;7.47;;
45944;SDS011;31655;48.972;10.686;2024-02-16T01:28:19;10.45;;;7.32;;
45944;SDS011;31655;48.972;10.686;2024-02-16T01:30:44;12.15;;;7.38;;
45944;SDS011;31655;48.972;10.686;2024-02-16T01:33:10;10.23;;;7.05;;
45944;SDS011;31655;48.972;10.686;2024-02-16T01:35:36;10.52;;;8.10;;
45944;SDS011;31655;48.972;10.686;2024-02-16T01:38:01;12.70;;;8.15;;
45944;SDS011;31655;48.972;10.686;2024-02-16T01:40:27;13.68;;;7.53;;
45944;SDS011;31655;48.972;10.686;2024-02-16T01:42:54;10.90;;;7.97;;
45944;SDS011;31655;48.972;10.686;2024-02-16T01:45:19;11.02;;;7.47;;
45944;SDS011;31655;48.972;10.686;2024-02-16T01:47:46;12.63;;;7.63;;
45944;SDS011;31655;48.972;10.686;2024-02-16T01:50:14;10.70;;;7.70;;
45944;SDS011;31655;48.972;10.686;2024-02-16T01:52:40;13.13;;;8.75;;
45944;SDS011;31655;48.972;10.686;2024-02-16T01:55:08;13.13;;;8.02;;
45944;SDS011;31655;48.972;10.686;2024-02-16T01:57:35;12.65;;;9.23;;
45944;SDS011;31655;48.972;10.686;2024-02-16T02:00:10;13.70;;;8.30;;
45944;SDS011;31655;48.972;10.686;2024-02-16T02:02:36;16.45;;;9.20;;
45944;SDS011;31655;48.972;10.686;2024-02-16T02:05:03;15.77;;;8.57;;
45944;SDS011;31655;48.972;10.686;2024-02-16T02:07:29;12.40;;;7.85;;
45944;SDS011;31655;48.972;10.686;2024-02-16T02:09:55;12.68;;;8.77;;
45944;SDS011;31655;48.972;10.686;2024-02-16T02:12:21;13.82;;;7.88;;
45944;SDS011;31655;48.972;10.686;2024-02-16T02:14:48;13.82;;;8.32;;
45944;SDS011;31655;48.972;10.686;2024-02-16T02:17:14;15.60;;;8.85;;
45944;SDS011;31655;48.972;10.686;2024-02-16T02:19:40;15.55;;;8.20;;
45944;SDS011;31655;48.972;10.686;2024-02-16T02:22:18;16.08;;;8.65;;
45944;SDS011;31655;48.972;10.686;2024-02-16T02:24:44;14.10;;;8.48;;
45944;SDS011;31655;48.972;10.686;2024-02-16T02:27:11;11.30;;;8.88;;
45944;SDS011;31655;48.972;10.686;2024-02-16T02:29:38;12.32;;;8.40;;
45944;SDS011;31655;48.972;10.686;2024-02-16T02:32:04;15.23;;;8.85;;
45944;SDS011;31655;48.972;10.686;2024-02-16T02:34:30;13.07;;;8.52;;
45944;SDS011;31655;48.972;10.686;2024-02-16T02:36:56;13.25;;;8.18;;
45944;SDS011;31655;48.972;10.686;2024-02-16T02:39:21;12.52;;;8.10;;
45944;SDS011;31655;48.972;10.686;2024-02-16T02:41:47;10.48;;;8.35;;
45944;SDS011;31655;48.972;10.686;2024-02-16T02:44:12;12.68;;;7.88;;
45944;SDS011;31655;48.972;10.686;2024-02-16T02:46:38;16.27;;;8.43;;
45944;SDS011;31655;48.972;10.686;2024-02-16T02:49:04;14.60;;;8.23;;
45944;SDS011;31655;48.972;10.686;2024-02-16T02:51:29;14.20;;;8.73;;
45944;SDS011;31655;48.972;10.686;2024-02-16T02:53:55;17.98;;;9.65;;
45944;SDS011;31655;48.972;10.686;2024-02-16T02:56:21;16.42;;;9.75;;
45944;SDS011;31655;48.972;10.686;2024-02-16T02:58:46;15.10;;;9.15;;
45944;SDS011;31655;48.972;10.686;2024-02-16T03:01:12;12.63;;;8.90;;
45944;SDS011;31655;48.972;10.686;2024-02-16T03:03:39;12.65;;;8.73;;
45944;SDS011;31655;48.972;10.686;2024-02-16T03:06:05;13.45;;;9.52;;
45944;SDS011;31655;48.972;10.686;2024-02-16T03:08:31;14.70;;;9.35;;
45944;SDS011;31655;48.972;10.686;2024-02-16T03:10:57;12.38;;;8.50;;
45944;SDS011;31655;48.972;10.686;2024-02-16T03:13:25;15.73;;;9.20;;
45944;SDS011;31655;48.972;10.686;2024-02-16T03:15:51;13.85;;;8.63;;
45944;SDS011;31655;48.972;10.686;2024-02-16T03:18:17;16.92;;;9.05;;
45944;SDS011;31655;48.972;10.686;2024-02-16T03:20:44;15.40;;;9.98;;
45944;SDS011;31655;48.972;10.686;2024-02-16T03:23:13;22.75;;;9.85;;
45944;SDS011;31655;48.972;10.686;2024-02-16T03:25:39;15.15;;;9.48;;
45944;SDS011;31655;48.972;10.686;2024-02-16T03:28:04;16.55;;;9.15;;
45944;SDS011;31655;48.972;10.686;2024-02-16T03:30:31;14.70;;;9.55;;
45944;SDS011;31655;48.972;10.686;2024-02-16T03:32:56;13.88;;;10.07;;
45944;SDS011;31655;48.972;10.686;2024-02-16T03:35:22;20.02;;;11.00;;
45944;SDS011;31655;48.972;10.686;2024-02-16T03:37:47;16.45;;;11.20;;
45944;SDS011;31655;48.972;10.686;2024-02-16T03:40:13;15.40;;;10.40;;
45944;SDS011;31655;48.972;10.686;2024-02-16T03:42:39;18.55;;;10.85;;
45944;SDS011;31655;48.972;10.686;2024-02-16T03:45:08;18.13;;;11.85;;
45944;SDS011;31655;48.972;10.686;2024-02-16T03:47:34;16.83;;;11.20;;
45944;SDS011;31655;48.972;10.686;2024-02-16T03:49:59;17.73;;;12.52;;
45944;SDS011;31655;48.972;10.686;2024-02-16T03:52:25;18.02;;;11.52;;
45944;SDS011;31655;48.972;10.686;2024-02-16T03:54:51;17.23;;;10.77;;
45944;SDS011;31655;48.972;10.686;2024-02-16T03:57:16;15.95;;;10.68;;
45944;SDS011;31655;48.972;10.686;2024-02-16T03:59:42;23.98;;;12.88;;
45944;SDS011;31655;48.972;10.686;2024-02-16T04:02:09;26.35;;;15.88;;
45944;SDS011;31655;48.972;10.686;2024-02-16T04:04:35;18.10;;;10.90;;
45944;SDS011;31655;48.972;10.686;2024-02-16T04:07:01;18.90;;;12.32;;
45944;SDS011;31655;48.972;10.686;2024-02-16T04:09:26;18.40;;;13.20;;
45944;SDS011;31655;48.972;10.686;2024-02-16T04:11:52;20.17;;;13.35;;
45944;SDS011;31655;48.972;10.686;2024-02-16T04:14:17;26.92;;;18.50;;
45944;SDS011;31655;48.972;10.686;2024-02-16T04:16:43;24.23;;;13.68;;
45944;SDS011;31655;48.972;10.686;2024-02-16T04:19:09;25.75;;;14.82;;
45944;SDS011;31655;48.972;10.686;2024-02-16T04:21:35;33.90;;;19.85;;
45944;SDS011;31655;48.972;10.686;2024-02-16T04:24:00;26.02;;;16.10;;
45944;SDS011;31655;48.972;10.686;2024-02-16T04:26:26;22.13;;;14.27;;
45944;SDS011;31655;48.972;10.686;2024-02-16T04:28:51;21.02;;;14.80;;
45944;SDS011;31655;48.972;10.686;2024-02-16T04:31:17;27.95;;;14.82;;
45944;SDS011;31655;48.972;10.686;2024-02-16T04:33:42;24.02;;;15.60;;
45944;SDS011;31655;48.972;10.686;2024-02-16T04:36:08;27.65;;;15.30;;
45944;SDS011;31655;48.972;10.686;2024-02-16T04:38:34;26.02;;;15.80;;
45944;SDS011;31655;48.972;10.686;2024-02-16T04:40:59;29.52;;;17.92;;
45944;SDS011;31655;48.972;10.686;2024-02-16T04:43:25;25.60;;;16.80;;
45944;SDS011;31655;48.972;10.686;2024-02-16T04:45:50;25.70;;;16.40;;
45944;SDS011;31655;48.972;10.686;2024-02-16T04:48:16;24.83;;;15.38;;
45944;SDS011;31655;48.972;10.686;2024-02-16T04:50:41;31.08;;;19.10;;
45944;SDS011;31655;48.972;10.686;2024-02-16T04:53:07;33.10;;;18.48;;
45944;SDS011;31655;48.972;10.686;2024-02-16T04:55:33;35.28;;;18.42;;
45944;SDS011;31655;48.972;10.686;2024-02-16T04:57:59;35.33;;;20.00;;
45944;SDS011;31655;48.972;10.686;2024-02-16T05:00:25;29.80;;;18.25;;
45944;SDS011;31655;48.972;10.686;2024-02-16T05:02:50;31.63;;;18.17;;
45944;SDS011;31655;48.972;10.686;2024-02-16T05:05:17;33.88;;;19.13;;
45944;SDS011;31655;48.972;10.686;2024-02-16T05:07:46;30.25;;;17.73;;
45944;SDS011;31655;48.972;10.686;2024-02-16T05:10:13;31.58;;;18.55;;
45944;SDS011;31655;48.972;10.686;2024-02-16T05:12:39;31.75;;;19.80;;
45944;SDS011;31655;48.972;10.686;2024-02-16T05:15:06;43.90;;;26.67;;
45944;SDS011;31655;48.972;10.686;2024-02-16T05:17:32;41.97;;;22.02;;
45944;SDS011;31655;48.972;10.686;2024-02-16T05:19:57;32.13;;;19.08;;
45944;SDS011;31655;48.972;10.686;2024-02-16T05:22:24;45.75;;;22.38;;
45944;SDS011;31655;48.972;10.686;2024-02-16T05:24:50;36.78;;;20.92;;
45944;SDS011;31655;48.972;10.686;2024-02-16T05:27:15;34.45;;;18.80;;
45944;SDS011;31655;48.972;10.686;2024-02-16T05:29:41;36.53;;;18.05;;
45944;SDS011;31655;48.972;10.686;2024-02-16T05:32:07;38.47;;;21.25;;
45944;SDS011;31655;48.972;10.686;2024-02-16T05:34:33;36.15;;;23.33;;
45944;SDS011;31655;48.972;10.686;2024-02-16T05:37:05;33.38;;;22.73;;
45944;SDS011;31655;48.972;10.686;2024-02-16T05:39:32;36.67;;;21.85;;
45944;SDS011;31655;48.972;10.686;2024-02-16T05:42:00;37.92;;;19.90;;
45944;SDS011;31655;48.972;10.686;2024-02-16T05:44:26;37.30;;;20.23;;
45944;SDS011;31655;48.972;10.686;2024-02-16T05:46:52;34.80;;;20.88;;
45944;SDS011;31655;48.972;10.686;2024-02-16T05:49:18;36.92;;;20.73;;
45944;SDS011;31655;48.972;10.686;2024-02-16T05:51:44;35.42;;;22.05;;
45944;SDS011;31655;48.972;10.686;2024-02-16T05:54:30;39.95;;;22.27;;
45944;SDS011;31655;48.972;10.686;2024-02-16T05:56:56;40.22;;;21.92;;
45944;SDS011;31655;48.972;10.686;2024-02-16T05:59:22;41.40;;;23.25;;
45944;SDS011;31655;48.972;10.686;2024-02-16T06:01:49;39.80;;;23.50;;
45944;SDS011;31655;48.972;10.686;2024-02-16T06:04:15;34.65;;;20.88;;
45944;SDS011;31655;48.972;10.686;2024-02-16T06:06:41;38.58;;;22.48;;
45944;SDS011;31655;48.972;10.686;2024-02-16T06:09:07;37.83;;;21.08;;
45944;SDS011;31655;48.972;10.686;2024-02-16T06:11:32;35.40;;;20.33;;
45944;SDS011;31655;48.972;10.686;2024-02-16T06:14:01;36.42;;;21.52;;
45944;SDS011;31655;48.972;10.686;2024-02-16T06:16:27;44.03;;;24.08;;
45944;SDS011;31655;48.972;10.686;2024-02-16T06:18:53;41.67;;;23.92;;
45944;SDS011;31655;48.972;10.686;2024-02-16T06:21:18;41.53;;;23.02;;
45944;SDS011;31655;48.972;10.686;2024-02-16T06:23:44;40.15;;;22.60;;
45944;SDS011;31655;48.972;10.686;2024-02-16T06:26:09;41.95;;;23.45;;
45944;SDS011;31655;48.972;10.686;2024-02-16T06:28:35;35.60;;;22.13;;
45944;SDS011;31655;48.972;10.686;2024-02-16T06:31:01;57.28;;;31.60;;
45944;SDS011;31655;48.972;10.686;2024-02-16T06:33:26;67.15;;;34.97;;
45944;SDS011;31655;48.972;10.686;2024-02-16T06:35:52;48.20;;;27.25;;
45944;SDS011;31655;48.972;10.686;2024-02-16T06:38:18;45.15;;;25.13;;
45944;SDS011;31655;48.972;10.686;2024-02-16T06:40:43;44.35;;;24.90;;
45944;SDS011;31655;48.972;10.686;2024-02-16T06:43:09;42.53;;;25.60;;
45944;SDS011;31655;48.972;10.686;2024-02-16T06:45:34;46.70;;;27.10;;
45944;SDS011;31655;48.972;10.686;2024-02-16T06:48:01;43.83;;;25.42;;
45944;SDS011;31655;48.972;10.686;2024-02-16T06:50:26;45.22;;;25.90;;
45944;SDS011;31655;48.972;10.686;2024-02-16T06:52:52;47.58;;;25.63;;
45944;SDS011;31655;48.972;10.686;2024-02-16T06:55:20;45.88;;;24.98;;
45944;SDS011;31655;48.972;10.686;2024-02-16T06:57:45;41.30;;;24.67;;
45944;SDS011;31655;48.972;10.686;2024-02-16T07:00:11;41.50;;;24.50;;
45944;SDS011;31655;48.972;10.686;2024-02-16T07:02:38;38.40;;;23.60;;
45944;SDS011;31655;48.972;10.686;2024-02-16T07:05:03;36.97;;;20.90;;
45944;SDS011;31655;48.972;10.686;2024-02-16T07:07:29;42.67;;;26.92;;
45944;SDS011;31655;48.972;10.686;2024-02-16T07:09:57;35.20;;;23.02;;
45944;SDS011;31655;48.972;10.686;2024-02-16T07:12:23;30.52;;;20.30;;
45944;SDS011;31655;48.972;10.686;2024-02-16T07:14:48;24.25;;;15.93;;
45944;SDS011;31655;48.972;10.686;2024-02-16T07:17:15;24.48;;;16.02;;
45944;SDS011;31655;48.972;10.686;2024-02-16T07:19:41;23.80;;;15.45;;
45944;SDS011;31655;48.972;10.686;2024-02-16T07:22:06;40.47;;;25.67;;
45944;SDS011;31655;48.972;10.686;2024-02-16T07:24:32;36.25;;;19.25;;
45944;SDS011;31655;48.972;10.686;2024-02-16T07:29:49;23.13;;;14.93;;
45944;SDS011;31655;48.972;10.686;2024-02-16T07:32:15;28.58;;;19.20;;
45944;SDS011;31655;48.972;10.686;2024-02-16T07:34:45;23.10;;;14.40;;
45944;SDS011;31655;48.972;10.686;2024-02-16T07:37:11;28.25;;;17.02;;
45944;SDS011;31655;48.972;10.686;2024-02-16T07:39:37;20.00;;;13.35;;
45944;SDS011;31655;48.972;10.686;2024-02-16T07:42:03;29.10;;;18.38;;
45944;SDS011;31655;48.972;10.686;2024-02-16T07:44:28;21.58;;;12.65;;
45944;SDS011;31655;48.972;10.686;2024-02-16T07:46:54;27.45;;;18.25;;
45944;SDS011;31655;48.972;10.686;2024-02-16T07:49:19;21.67;;;14.80;;
45944;SDS011;31655;48.972;10.686;2024-02-16T07:51:45;20.10;;;15.00;;
45944;SDS011;31655;48.972;10.686;2024-02-16T07:54:10;32.30;;;20.80;;
45944;SDS011;31655;48.972;10.686;2024-02-16T07:56:36;33.22;;;21.45;;
45944;SDS011;31655;48.972;10.686;2024-02-16T07:59:01;34.05;;;21.42;;
45944;SDS011;31655;48.972;10.686;2024-02-16T08:01:27;29.02;;;19.23;;
45944;SDS011;31655;48.972;10.686;2024-02-16T08:03:52;32.80;;;19.33;;
45944;SDS011;31655;48.972;10.686;2024-02-16T08:06:19;31.08;;;20.25;;
45944;SDS011;31655;48.972;10.686;2024-02-16T08:08:49;35.63;;;21.15;;
45944;SDS011;31655;48.972;10.686;2024-02-16T08:11:15;26.80;;;16.35;;
45944;SDS011;31655;48.972;10.686;2024-02-16T08:13:40;30.00;;;19.63;;
45944;SDS011;31655;48.972;10.686;2024-02-16T08:16:07;24.75;;;16.75;;
45944;SDS011;31655;48.972;10.686;2024-02-16T08:18:33;27.40;;;20.60;;
45944;SDS011;31655;48.972;10.686;2024-02-16T08:20:59;25.90;;;17.48;;
45944;SDS011;31655;48.972;10.686;2024-02-16T08:23:25;26.33;;;17.20;;
45944;SDS011;31655;48.972;10.686;2024-02-16T08:25:51;28.63;;;19.75;;
45944;SDS011;31655;48.972;10.686;2024-02-16T08:28:16;32.63;;;20.65;;
45944;SDS011;31655;48.972;10.686;2024-02-16T08:30:42;19.77;;;13.73;;
45944;SDS011;31655;48.972;10.686;2024-02-16T08:33:09;21.52;;;15.82;;
45944;SDS011;31655;48.972;10.686;2024-02-16T08:35:35;22.08;;;15.65;;
45944;SDS011;31655;48.972;10.686;2024-02-16T08:38:02;24.45;;;14.63;;
45944;SDS011;31655;48.972;10.686;2024-02-16T08:40:28;26.83;;;15.27;;
45944;SDS011;31655;48.972;10.686;2024-02-16T08:42:54;21.50;;;15.43;;
45944;SDS011;31655;48.972;10.686;2024-02-16T08:45:20;27.40;;;15.77;;
45944;SDS011;31655;48.972;10.686;2024-02-16T08:47:45;22.10;;;14.82;;
45944;SDS011;31655;48.972;10.686;2024-02-16T08:50:11;27.48;;;19.05;;
45944;SDS011;31655;48.972;10.686;2024-02-16T08:52:37;26.38;;;16.67;;
45944;SDS011;31655;48.972;10.686;2024-02-16T08:55:03;23.10;;;14.23;;
45944;SDS011;31655;48.972;10.686;2024-02-16T08:57:28;20.05;;;13.85;;
45944;SDS011;31655;48.972;10.686;2024-02-16T08:59:56;20.90;;;14.07;;
45944;SDS011;31655;48.972;10.686;2024-02-16T09:02:21;26.63;;;15.10;;
45944;SDS011;31655;48.972;10.686;2024-02-16T09:04:47;19.20;;;12.85;;
45944;SDS011;31655;48.972;10.686;2024-02-16T09:07:13;18.58;;;12.65;;
45944;SDS011;31655;48.972;10.686;2024-02-16T09:09:38;20.00;;;13.35;;
45944;SDS011;31655;48.972;10.686;2024-02-16T09:12:04;22.13;;;12.70;;
45944;SDS011;31655;48.972;10.686;2024-02-16T09:14:30;17.45;;;12.88;;
45944;SDS011;31655;48.972;10.686;2024-02-16T09:16:57;18.77;;;12.73;;
45944;SDS011;31655;48.972;10.686;2024-02-16T09:19:22;19.15;;;14.10;;
45944;SDS011;31655;48.972;10.686;2024-02-16T09:21:48;17.75;;;13.05;;
45944;SDS011;31655;48.972;10.686;2024-02-16T09:24:19;19.48;;;13.77;;
45944;SDS011;31655;48.972;10.686;2024-02-16T09:26:44;20.13;;;13.93;;
45944;SDS011;31655;48.972;10.686;2024-02-16T09:29:13;18.92;;;13.88;;
45944;SDS011;31655;48.972;10.686;2024-02-16T09:31:40;23.17;;;14.18;;
45944;SDS011;31655;48.972;10.686;2024-02-16T09:34:06;21.73;;;15.60;;
45944;SDS011;31655;48.972;10.686;2024-02-16T09:36:32;25.48;;;14.13;;
45944;SDS011;31655;48.972;10.686;2024-02-16T09:38:57;21.33;;;14.27;;
45944;SDS011;31655;48.972;10.686;2024-02-16T09:41:23;20.42;;;14.50;;
45944;SDS011;31655;48.972;10.686;2024-02-16T09:43:49;17.42;;;12.63;;
45944;SDS011;31655;48.972;10.686;2024-02-16T09:46:18;18.33;;;13.50;;
45944;SDS011;31655;48.972;10.686;2024-02-16T09:48:46;16.30;;;12.50;;
45944;SDS011;31655;48.972;10.686;2024-02-16T09:51:17;15.45;;;12.10;;
45944;SDS011;31655;48.972;10.686;2024-02-16T09:53:43;17.65;;;12.20;;
45944;SDS011;31655;48.972;10.686;2024-02-16T09:56:08;18.30;;;13.43;;
45944;SDS011;31655;48.972;10.686;2024-02-16T09:58:34;18.50;;;12.80;;
45944;SDS011;31655;48.972;10.686;2024-02-16T10:01:00;15.90;;;12.27;;
45944;SDS011;31655;48.972;10.686;2024-02-16T10:03:28;17.98;;;13.13;;
45944;SDS011;31655;48.972;10.686;2024-02-16T10:06:05;16.75;;;12.05;;
45944;SDS011;31655;48.972;10.686;2024-02-16T10:08:31;18.70;;;12.73;;
45944;SDS011;31655;48.972;10.686;2024-02-16T10:11:01;17.75;;;12.85;;
45944;SDS011;31655;48.972;10.686;2024-02-16T10:13:28;15.80;;;13.10;;
45944;SDS011;31655;48.972;10.686;2024-02-16T10:16:16;22.77;;;14.02;;
45944;SDS011;31655;48.972;10.686;2024-02-16T10:18:41;20.65;;;15.82;;
45944;SDS011;31655;48.972;10.686;2024-02-16T10:21:08;21.38;;;14.60;;
45944;SDS011;31655;48.972;10.686;2024-02-16T10:23:34;19.85;;;14.20;;
45944;SDS011;31655;48.972;10.686;2024-02-16T10:25:59;23.17;;;15.52;;
45944;SDS011;31655;48.972;10.686;2024-02-16T10:28:26;18.27;;;13.45;;
45944;SDS011;31655;48.972;10.686;2024-02-16T10:30:59;21.38;;;13.90;;
45944;SDS011;31655;48.972;10.686;2024-02-16T10:33:30;15.10;;;12.17;;
45944;SDS011;31655;48.972;10.686;2024-02-16T10:35:57;19.80;;;13.20;;
45944;SDS011;31655;48.972;10.686;2024-02-16T10:38:23;19.50;;;13.93;;
45944;SDS011;31655;48.972;10.686;2024-02-16T10:40:51;19.45;;;14.30;;
45944;SDS011;31655;48.972;10.686;2024-02-16T10:43:18;20.02;;;13.88;;
45944;SDS011;31655;48.972;10.686;2024-02-16T10:45:46;18.20;;;12.93;;
45944;SDS011;31655;48.972;10.686;2024-02-16T10:48:14;20.67;;;13.38;;
45944;SDS011;31655;48.972;10.686;2024-02-16T10:50:40;22.02;;;11.70;;
45944;SDS011;31655;48.972;10.686;2024-02-16T10:53:14;15.10;;;11.63;;
45944;SDS011;31655;48.972;10.686;2024-02-16T10:55:52;19.60;;;12.40;;
45944;SDS011;31655;48.972;10.686;2024-02-16T10:58:18;16.08;;;11.57;;
45944;SDS011;31655;48.972;10.686;2024-02-16T11:00:48;17.42;;;12.75;;
45944;SDS011;31655;48.972;10.686;2024-02-16T11:03:17;17.80;;;11.88;;
45944;SDS011;31655;48.972;10.686;2024-02-16T11:05:48;14.32;;;10.55;;
45944;SDS011;31655;48.972;10.686;2024-02-16T11:08:15;14.60;;;11.07;;
45944;SDS011;31655;48.972;10.686;2024-02-16T11:13:24;20.52;;;11.15;;
45944;SDS011;31655;48.972;10.686;2024-02-16T11:16:12;17.08;;;10.98;;
45944;SDS011;31655;48.972;10.686;2024-02-16T11:18:42;16.83;;;12.27;;
45944;SDS011;31655;48.972;10.686;2024-02-16T11:21:15;17.13;;;12.82;;
45944;SDS011;31655;48.972;10.686;2024-02-16T11:23:41;14.18;;;11.07;;
45944;SDS011;31655;48.972;10.686;2024-02-16T11:26:08;15.63;;;10.93;;
45944;SDS011;31655;48.972;10.686;2024-02-16T11:28:39;17.42;;;11.57;;
45944;SDS011;31655;48.972;10.686;2024-02-16T11:31:06;16.35;;;10.88;;
45944;SDS011;31655;48.972;10.686;2024-02-16T11:33:32;15.68;;;11.38;;
45944;SDS011;31655;48.972;10.686;2024-02-16T11:35:59;16.95;;;10.95;;
45944;SDS011;31655;48.972;10.686;2024-02-16T11:38:27;15.63;;;11.57;;
45944;SDS011;31655;48.972;10.686;2024-02-16T11:40:59;14.90;;;10.98;;
45944;SDS011;31655;48.972;10.686;2024-02-16T11:43:25;14.75;;;10.73;;
45944;SDS011;31655;48.972;10.686;2024-02-16T11:45:51;15.95;;;10.50;;
45944;SDS011;31655;48.972;10.686;2024-02-16T11:48:24;16.92;;;10.98;;
45944;SDS011;31655;48.972;10.686;2024-02-16T12:06:21;11.73;;;9.70;;
45944;SDS011;31655;48.972;10.686;2024-02-16T12:08:47;17.10;;;10.45;;
45944;SDS011;31655;48.972;10.686;2024-02-16T12:11:13;11.63;;;9.52;;
45944;SDS011;31655;48.972;10.686;2024-02-16T12:13:40;17.17;;;9.30;;
45944;SDS011;31655;48.972;10.686;2024-02-16T12:16:06;12.77;;;9.45;;
45944;SDS011;31655;48.972;10.686;2024-02-16T12:18:35;16.80;;;10.18;;
45944;SDS011;31655;48.972;10.686;2024-02-16T12:21:02;16.65;;;10.13;;
45944;SDS011;31655;48.972;10.686;2024-02-16T12:23:29;15.40;;;9.75;;
45944;SDS011;31655;48.972;10.686;2024-02-16T12:25:59;14.85;;;9.95;;
45944;SDS011;31655;48.972;10.686;2024-02-16T12:28:26;14.38;;;9.82;;
45944;SDS011;31655;48.972;10.686;2024-02-16T12:30:54;16.23;;;9.98;;
45944;SDS011;31655;48.972;10.686;2024-02-16T12:33:21;12.82;;;9.48;;
45944;SDS011;31655;48.972;10.686;2024-02-16T12:35:47;12.50;;;9.68;;
45944;SDS011;31655;48.972;10.686;2024-02-16T12:38:13;13.27;;;8.88;;
45944;SDS011;31655;48.972;10.686;2024-02-16T12:40:38;10.95;;;8.13;;
45944;SDS011;31655;48.972;10.686;2024-02-16T12:43:04;15.30;;;9.10;;
45944;SDS011;31655;48.972;10.686;2024-02-16T12:45:30;11.18;;;8.15;;
45944;SDS011;31655;48.972;10.686;2024-02-16T12:47:56;12.23;;;8.55;;
45944;SDS011;31655;48.972;10.686;2024-02-16T12:50:22;14.25;;;9.68;;
45944;SDS011;31655;48.972;10.686;2024-02-16T12:52:48;15.13;;;8.88;;
45944;SDS011;31655;48.972;10.686;2024-02-16T12:55:13;10.20;;;7.65;;
45944;SDS011;31655;48.972;10.686;2024-02-16T12:57:41;15.25;;;9.30;;
45944;SDS011;31655;48.972;10.686;2024-02-16T13:00:06;11.43;;;8.20;;
45944;SDS011;31655;48.972;10.686;2024-02-16T13:02:32;13.57;;;8.15;;
45944;SDS011;31655;48.972;10.686;2024-02-16T13:04:59;10.48;;;8.07;;
45944;SDS011;31655;48.972;10.686;2024-02-16T13:07:25;13.23;;;8.70;;
45944;SDS011;31655;48.972;10.686;2024-02-16T13:09:51;10.10;;;6.78;;
45944;SDS011;31655;48.972;10.686;2024-02-16T13:12:17;9.85;;;7.43;;
45944;SDS011;31655;48.972;10.686;2024-02-16T13:14:45;9.98;;;7.20;;
45944;SDS011;31655;48.972;10.686;2024-02-16T13:17:11;9.88;;;7.50;;
45944;SDS011;31655;48.972;10.686;2024-02-16T13:19:37;18.58;;;8.55;;
45944;SDS011;31655;48.972;10.686;2024-02-16T13:22:03;11.50;;;7.82;;
45944;SDS011;31655;48.972;10.686;2024-02-16T13:24:29;10.82;;;7.60;;
45944;SDS011;31655;48.972;10.686;2024-02-16T13:26:54;14.63;;;7.70;;
45944;SDS011;31655;48.972;10.686;2024-02-16T13:29:21;10.43;;;7.22;;
45944;SDS011;31655;48.972;10.686;2024-02-16T13:31:47;12.70;;;8.05;;
45944;SDS011;31655;48.972;10.686;2024-02-16T13:34:12;10.60;;;8.05;;
45944;SDS011;31655;48.972;10.686;2024-02-16T13:36:39;9.15;;;7.65;;
45944;SDS011;31655;48.972;10.686;2024-02-16T13:39:07;12.65;;;8.93;;
45944;SDS011;31655;48.972;10.686;2024-02-16T13:41:33;10.07;;;8.48;;
45944;SDS011;31655;48.972;10.686;2024-02-16T13:43:59;12.18;;;8.57;;
45944;SDS011;31655;48.972;10.686;2024-02-16T13:46:24;11.65;;;8.13;;
45944;SDS011;31655;48.972;10.686;2024-02-16T13:48:50;20.35;;;8.80;;
45944;SDS011;31655;48.972;10.686;2024-02-16T13:51:16;18.00;;;9.80;;
45944;SDS011;31655;48.972;10.686;2024-02-16T13:53:43;14.27;;;8.75;;
45944;SDS011;31655;48.972;10.686;2024-02-16T13:56:08;12.85;;;8.95;;
45944;SDS011;31655;48.972;10.686;2024-02-16T13:58:34;12.65;;;8.57;;
45944;SDS011;31655;48.972;10.686;2024-02-16T14:00:59;14.88;;;8.60;;
45944;SDS011;31655;48.972;10.686;2024-02-16T14:03:28;15.45;;;9.05;;
45944;SDS011;31655;48.972;10.686;2024-02-16T14:05:53;15.40;;;8.50;;
45944;SDS011;31655;48.972;10.686;2024-02-16T14:08:19;13.15;;;8.43;;
45944;SDS011;31655;48.972;10.686;2024-02-16T14:10:45;12.18;;;8.40;;
45944;SDS011;31655;48.972;10.686;2024-02-16T14:13:10;12.55;;;8.52;;
45944;SDS011;31655;48.972;10.686;2024-02-16T14:15:36;12.55;;;9.15;;
45944;SDS011;31655;48.972;10.686;2024-02-16T14:18:02;12.98;;;8.50;;
45944;SDS011;31655;48.972;10.686;2024-02-16T14:20:28;12.85;;;8.25;;
45944;SDS011;31655;48.972;10.686;2024-02-16T14:22:54;18.98;;;8.45;;
45944;SDS011;31655;48.972;10.686;2024-02-16T14:25:19;21.27;;;9.27;;
45944;SDS011;31655;48.972;10.686;2024-02-16T14:27:45;11.13;;;7.18;;
45944;SDS011;31655;48.972;10.686;2024-02-16T14:30:11;12.07;;;8.55;;